Terminal Aerodrome Forecast
Issued by NWS Cleveland, OH

Home | Current Version | Previous Version | Text Only | Print | Product List | Glossary Off
Versions: 1 2 3 4 5 6 7 8 9 10 11 12 13 14 15

520
FTUS41 KCLE 072337
TAFYNG
TAF
KYNG 072337Z 0800/0824 22008KT P6SM BKN150
     FM081200 26012KT P6SM OVC070
     FM081900 27015G25KT P6SM VCSH OVC035=

USA.gov is the U.S. government's official web portal to all federal, state and local government web resources and services.